ECMMA LEAM-LEZL

Flight info

Callsign ECMMA
Flight time 2h 5m
Altitude 3000
Route KUNEN L112 MGA M744 MAR
Aircraft C172/L-SFG/C

Departure

Time 2026-04-21 14:08
Airport Almería Airport (LEAM)

Arrival

Time 2026-04-21 16:14
Airport Seville Airport (LEZL)
Time Latitude Longitude Altitude Speed Heading
2026-04-21 14:03 36.84431 -2.37834 44 ft 0 kts 214°
2026-04-21 14:04 36.84429 -2.37836 44 ft 2 kts 209°
2026-04-21 14:04 36.84377 -2.37856 44 ft 14 kts 156°
2026-04-21 14:05 36.84388 -2.37751 45 ft 18 kts 69°
2026-04-21 14:05 36.84432 -2.37557 48 ft 28 kts 68°
2026-04-21 14:05 36.84495 -2.37292 51 ft 36 kts 67°
2026-04-21 14:05 36.84581 -2.36971 56 ft 40 kts 75°
2026-04-21 14:06 36.84557 -2.36784 57 ft 0 kts 106°
2026-04-21 14:06 36.84547 -2.36770 55 ft 10 kts 141°
2026-04-21 14:06 36.84455 -2.36779 56 ft 20 kts 248°
2026-04-21 14:06 36.84377 -2.37084 57 ft 50 kts 251°
2026-04-21 14:07 36.84267 -2.37527 130 ft 51 kts 248°
2026-04-21 14:07 36.84170 -2.37985 176 ft 55 kts 248°
2026-04-21 14:07 36.84009 -2.38536 168 ft 73 kts 247°
2026-04-21 14:07 36.83781 -2.38986 383 ft 62 kts 185°
2026-04-21 14:08 36.83332 -2.38942 499 ft 67 kts 181°
2026-04-21 14:08 36.82819 -2.38924 633 ft 80 kts 192°
2026-04-21 14:08 36.82480 -2.39410 747 ft 80 kts 246°
2026-04-21 14:08 36.82611 -2.40037 842 ft 87 kts 325°
2026-04-21 14:09 36.83229 -2.40298 950 ft 97 kts 337°
2026-04-21 14:09 36.83832 -2.40579 1197 ft 90 kts 338°
2026-04-21 14:09 36.84412 -2.40842 1424 ft 86 kts 348°
2026-04-21 14:09 36.84941 -2.41020 1658 ft 75 kts 348°
2026-04-21 14:10 36.85431 -2.41211 1833 ft 80 kts 346°
2026-04-21 14:10 36.86009 -2.41428 1855 ft 93 kts 348°
2026-04-21 14:10 36.86655 -2.41674 1891 ft 100 kts 348°
2026-04-21 14:10 36.87375 -2.41850 1869 ft 105 kts 353°
2026-04-21 14:11 36.88133 -2.42107 1868 ft 121 kts 348°
2026-04-21 14:11 36.88954 -2.42378 1871 ft 123 kts 347°
2026-04-21 14:11 36.89812 -2.42646 1851 ft 128 kts 347°
2026-04-21 14:11 36.90667 -2.42915 1862 ft 126 kts 346°
2026-04-21 14:12 36.91512 -2.43165 1859 ft 122 kts 348°
2026-04-21 14:12 36.92335 -2.43417 1854 ft 121 kts 346°
2026-04-21 14:12 36.93110 -2.43804 1852 ft 120 kts 331°
2026-04-21 14:12 36.93818 -2.44308 1854 ft 116 kts 330°
2026-04-21 14:13 36.94517 -2.44812 1842 ft 115 kts 331°
2026-04-21 14:13 36.95203 -2.45303 1856 ft 113 kts 330°
2026-04-21 14:13 36.95885 -2.45771 1857 ft 115 kts 330°
2026-04-21 14:13 36.96593 -2.46248 1862 ft 117 kts 331°
2026-04-21 14:14 36.97324 -2.46696 1864 ft 116 kts 340°
2026-04-21 14:14 36.98085 -2.47003 1869 ft 114 kts 342°
2026-04-21 14:14 36.98846 -2.47313 1860 ft 114 kts 341°
2026-04-21 14:14 36.99587 -2.47598 1879 ft 111 kts 341°
2026-04-21 14:15 37.00330 -2.47888 1877 ft 113 kts 341°
2026-04-21 14:15 37.01080 -2.48176 1875 ft 113 kts 341°
2026-04-21 14:15 37.01811 -2.48444 2064 ft 100 kts 341°
2026-04-21 14:15 37.02433 -2.48684 2414 ft 87 kts 341°
2026-04-21 14:16 37.02937 -2.48902 2659 ft 72 kts 341°
2026-04-21 14:16 37.03478 -2.49131 2654 ft 93 kts 341°
2026-04-21 14:16 37.04130 -2.49388 2734 ft 97 kts 342°
2026-04-21 14:16 37.04763 -2.49648 2867 ft 95 kts 341°
2026-04-21 14:17 37.05431 -2.49902 2902 ft 107 kts 343°
2026-04-21 14:17 37.06170 -2.50207 2896 ft 110 kts 340°
2026-04-21 14:17 37.06912 -2.50507 2901 ft 115 kts 341°
2026-04-21 14:17 37.07693 -2.50818 2902 ft 119 kts 341°
2026-04-21 14:18 37.08491 -2.51134 2900 ft 121 kts 342°
2026-04-21 14:18 37.09190 -2.51625 2910 ft 113 kts 301°
2026-04-21 14:18 37.09755 -2.52323 2908 ft 116 kts 316°
2026-04-21 14:18 37.10395 -2.52973 2909 ft 120 kts 316°
2026-04-21 14:19 37.11035 -2.53618 3045 ft 111 kts 315°
2026-04-21 14:19 37.11586 -2.54244 3178 ft 103 kts 299°
2026-04-21 14:19 37.11906 -2.55019 3277 ft 97 kts 289°
2026-04-21 14:19 37.12087 -2.55769 3386 ft 86 kts 271°
2026-04-21 14:20 37.12155 -2.56493 3487 ft 81 kts 267°
2026-04-21 14:20 37.12236 -2.57188 3596 ft 78 kts 269°
2026-04-21 14:20 37.12296 -2.57862 3693 ft 75 kts 275°
2026-04-21 14:20 37.12362 -2.58447 3791 ft 66 kts 269°
2026-04-21 14:21 37.12445 -2.59064 3747 ft 74 kts 270°
2026-04-21 14:21 37.12526 -2.59721 3762 ft 79 kts 272°
2026-04-21 14:21 37.12618 -2.60438 3787 ft 90 kts 281°
2026-04-21 14:21 37.12860 -2.61187 3808 ft 99 kts 298°
2026-04-21 14:22 37.13251 -2.61960 3840 ft 111 kts 298°
2026-04-21 14:22 37.13651 -2.62820 3862 ft 117 kts 297°
2026-04-21 14:22 37.14025 -2.63735 3888 ft 120 kts 291°
2026-04-21 14:22 37.14332 -2.64704 3917 ft 118 kts 278°
2026-04-21 14:23 37.14485 -2.65741 3922 ft 123 kts 277°
2026-04-21 14:23 37.14631 -2.66793 3918 ft 124 kts 276°
2026-04-21 14:23 37.14782 -2.67816 3929 ft 120 kts 276°
2026-04-21 14:23 37.14936 -2.68869 3912 ft 121 kts 276°
2026-04-21 14:24 37.15091 -2.69903 3922 ft 120 kts 277°
2026-04-21 14:24 37.15241 -2.70939 3922 ft 121 kts 277°
2026-04-21 14:24 37.15403 -2.71995 3916 ft 124 kts 276°
2026-04-21 14:24 37.15561 -2.73043 3923 ft 123 kts 276°
2026-04-21 14:25 37.15716 -2.74088 3914 ft 121 kts 276°
2026-04-21 14:25 37.15867 -2.75101 3923 ft 119 kts 277°
2026-04-21 14:25 37.16014 -2.76123 3911 ft 119 kts 274°
2026-04-21 14:25 37.16161 -2.77131 3917 ft 118 kts 276°
2026-04-21 14:26 37.16310 -2.78123 3918 ft 114 kts 277°
2026-04-21 14:26 37.16470 -2.79112 3910 ft 115 kts 277°
2026-04-21 14:26 37.16623 -2.80121 3918 ft 119 kts 276°
2026-04-21 14:26 37.16765 -2.81162 3911 ft 121 kts 275°
2026-04-21 14:27 37.16920 -2.82163 3908 ft 112 kts 278°
2026-04-21 14:27 37.17057 -2.83133 3913 ft 117 kts 276°
2026-04-21 14:27 37.17214 -2.84159 3899 ft 120 kts 276°
2026-04-21 14:27 37.17370 -2.85154 3924 ft 116 kts 276°
2026-04-21 14:28 37.17534 -2.86180 3924 ft 123 kts 277°
2026-04-21 14:28 37.17689 -2.87213 3909 ft 117 kts 276°
2026-04-21 14:28 37.17845 -2.88199 3912 ft 116 kts 276°
2026-04-21 14:28 37.18004 -2.89171 4104 ft 108 kts 276°
2026-04-21 14:29 37.18150 -2.90016 4322 ft 90 kts 275°
2026-04-21 14:29 37.18287 -2.90760 4399 ft 89 kts 277°
2026-04-21 14:29 37.18428 -2.91527 4407 ft 93 kts 275°
2026-04-21 14:29 37.18565 -2.92308 4401 ft 87 kts 276°
2026-04-21 14:30 37.18699 -2.93045 4396 ft 85 kts 276°
2026-04-21 14:30 37.18825 -2.93724 4401 ft 78 kts 275°
2026-04-21 14:30 37.18956 -2.94397 4411 ft 86 kts 276°
2026-04-21 14:30 37.19130 -2.95164 4425 ft 98 kts 287°
2026-04-21 14:31 37.19377 -2.96019 4420 ft 107 kts 285°
2026-04-21 14:31 37.19661 -2.96903 4420 ft 115 kts 287°
2026-04-21 14:31 37.19945 -2.97875 4410 ft 119 kts 286°
2026-04-21 14:31 37.20222 -2.98831 4422 ft 114 kts 286°
2026-04-21 14:32 37.20499 -2.99770 4404 ft 113 kts 285°
2026-04-21 14:32 37.20771 -3.00673 4398 ft 109 kts 288°
2026-04-21 14:32 37.20939 -3.01266 4399 ft 108 kts 282°
2026-04-21 14:32 37.21096 -3.02171 4396 ft 103 kts 277°
2026-04-21 14:33 37.21255 -3.03021 4396 ft 98 kts 277°
2026-04-21 14:33 37.21461 -3.04116 4401 ft 97 kts 277°
2026-04-21 14:33 37.21561 -3.04683 4392 ft 99 kts 278°
2026-04-21 14:33 37.21753 -3.05751 4402 ft 94 kts 278°
2026-04-21 14:34 37.21855 -3.06283 4407 ft 91 kts 278°
2026-04-21 14:34 37.22262 -3.06823 4404 ft 92 kts 345°
2026-04-21 14:34 37.22903 -3.06950 4400 ft 96 kts 345°
2026-04-21 14:34 37.23570 -3.07093 4409 ft 98 kts 346°
2026-04-21 14:35 37.24266 -3.07258 4410 ft 104 kts 347°
2026-04-21 14:35 37.24982 -3.07410 4408 ft 104 kts 347°
2026-04-21 14:35 37.25695 -3.07565 4409 ft 104 kts 345°
2026-04-21 14:35 37.26409 -3.07734 4393 ft 106 kts 348°
2026-04-21 14:36 37.27117 -3.07912 4409 ft 104 kts 347°
2026-04-21 14:36 37.27874 -3.08086 4401 ft 114 kts 345°
2026-04-21 14:36 37.28588 -3.08462 4407 ft 113 kts 324°
2026-04-21 14:36 37.29077 -3.09210 4395 ft 110 kts 292°
2026-04-21 14:37 37.29499 -3.10017 4396 ft 114 kts 311°
2026-04-21 14:37 37.30069 -3.10704 4387 ft 114 kts 323°
2026-04-21 14:37 37.30769 -3.11161 4394 ft 113 kts 328°
2026-04-21 14:37 37.31381 -3.11782 4397 ft 115 kts 310°
2026-04-21 14:38 37.31936 -3.12523 4394 ft 117 kts 310°
2026-04-21 14:38 37.32504 -3.13276 4402 ft 120 kts 311°
2026-04-21 14:38 37.32822 -3.14172 4385 ft 113 kts 266°
2026-04-21 14:38 37.32783 -3.15144 4383 ft 112 kts 272°
2026-04-21 14:39 37.33052 -3.16043 4377 ft 106 kts 295°
2026-04-21 14:39 37.33410 -3.16798 4370 ft 97 kts 304°
2026-04-21 14:39 37.33808 -3.17433 4364 ft 90 kts 275°
2026-04-21 14:39 37.33787 -3.18200 4395 ft 94 kts 273°
2026-04-21 14:40 37.33880 -3.19030 4420 ft 96 kts 274°
2026-04-21 14:40 37.33961 -3.19874 4379 ft 93 kts 274°
2026-04-21 14:40 37.34047 -3.20682 4381 ft 96 kts 273°
2026-04-21 14:40 37.34014 -3.21504 4391 ft 96 kts 261°
2026-04-21 14:41 37.33835 -3.22320 4381 ft 94 kts 253°
2026-04-21 14:41 37.33679 -3.23118 4395 ft 97 kts 256°
2026-04-21 14:41 37.33476 -3.23928 4397 ft 97 kts 253°
2026-04-21 14:41 37.33291 -3.24739 4389 ft 95 kts 253°
2026-04-21 14:42 37.33112 -3.25517 4397 ft 93 kts 253°
2026-04-21 14:42 37.32946 -3.26326 4382 ft 95 kts 253°
2026-04-21 14:42 37.32800 -3.27113 4456 ft 89 kts 255°
2026-04-21 14:42 37.32697 -3.27830 4566 ft 82 kts 260°
2026-04-21 14:43 37.32763 -3.28534 4690 ft 83 kts 266°
2026-04-21 14:43 37.32713 -3.29254 4800 ft 83 kts 261°
2026-04-21 14:43 37.32678 -3.29972 4880 ft 80 kts 259°
2026-04-21 14:43 37.32625 -3.30678 4895 ft 84 kts 260°
2026-04-21 14:44 37.32557 -3.31421 4897 ft 88 kts 259°
2026-04-21 14:44 37.32481 -3.32188 4969 ft 87 kts 261°
2026-04-21 14:44 37.32410 -3.32921 5085 ft 84 kts 260°
2026-04-21 14:44 37.32313 -3.33631 5213 ft 82 kts 260°
2026-04-21 14:45 37.32209 -3.34354 5324 ft 84 kts 261°
2026-04-21 14:45 37.32122 -3.35052 5429 ft 80 kts 258°
2026-04-21 14:45 37.32072 -3.35757 5557 ft 84 kts 259°
2026-04-21 14:45 37.32031 -3.36466 5658 ft 76 kts 268°
2026-04-21 14:46 37.32151 -3.37102 5787 ft 75 kts 275°
2026-04-21 14:46 37.32147 -3.37771 5884 ft 83 kts 259°
2026-04-21 14:46 37.32055 -3.38528 5892 ft 96 kts 256°
2026-04-21 14:46 37.31932 -3.39390 5908 ft 106 kts 256°
2026-04-21 14:47 37.31802 -3.40323 5897 ft 111 kts 255°
2026-04-21 14:47 37.31570 -3.41231 5903 ft 106 kts 242°
2026-04-21 14:47 37.31244 -3.42040 5876 ft 101 kts 243°
2026-04-21 14:47 37.30932 -3.42787 5875 ft 93 kts 243°
2026-04-21 14:48 37.30643 -3.43489 5879 ft 87 kts 240°
2026-04-21 14:48 37.30358 -3.44179 5889 ft 88 kts 243°
2026-04-21 14:48 37.29965 -3.44774 5885 ft 94 kts 213°
2026-04-21 14:48 37.29331 -3.45099 5898 ft 100 kts 211°
2026-04-21 14:49 37.28706 -3.45512 5881 ft 98 kts 210°
2026-04-21 14:49 37.28113 -3.45906 5857 ft 95 kts 213°
2026-04-21 14:49 37.27577 -3.46254 5875 ft 81 kts 217°
2026-04-21 14:49 37.27098 -3.46614 5802 ft 76 kts 216°
2026-04-21 14:50 37.26830 -3.46832 5891 ft 66 kts 218°
2026-04-21 14:50 37.26290 -3.47317 5878 ft 65 kts 217°
2026-04-21 14:50 37.25899 -3.47659 5919 ft 74 kts 216°
2026-04-21 14:50 37.25440 -3.48042 5901 ft 84 kts 217°
2026-04-21 14:51 37.24931 -3.48476 5914 ft 91 kts 217°
2026-04-21 14:51 37.24433 -3.48913 5931 ft 88 kts 217°
2026-04-21 14:51 37.23866 -3.49418 5877 ft 103 kts 217°
2026-04-21 14:51 37.23263 -3.49953 5899 ft 113 kts 217°
2026-04-21 14:52 37.22801 -3.50714 5896 ft 110 kts 247°
2026-04-21 14:52 37.22618 -3.51632 5905 ft 113 kts 259°
2026-04-21 14:52 37.22833 -3.52608 5906 ft 115 kts 289°
2026-04-21 14:52 37.23164 -3.53481 5877 ft 104 kts 286°
2026-04-21 14:53 37.23471 -3.54279 5873 ft 100 kts 286°
2026-04-21 14:53 37.23774 -3.55048 5891 ft 102 kts 287°
2026-04-21 14:53 37.24099 -3.55890 5896 ft 110 kts 287°
2026-04-21 14:53 37.24423 -3.56762 5885 ft 107 kts 287°
2026-04-21 14:54 37.24591 -3.57640 5878 ft 103 kts 271°
2026-04-21 14:54 37.24682 -3.58512 5878 ft 99 kts 272°
2026-04-21 14:54 37.24778 -3.59322 5885 ft 94 kts 271°
2026-04-21 14:54 37.24857 -3.60129 5883 ft 94 kts 270°
2026-04-21 14:55 37.24942 -3.60917 5876 ft 87 kts 271°
2026-04-21 14:55 37.25032 -3.61670 5883 ft 89 kts 271°
2026-04-21 14:55 37.25107 -3.62452 5885 ft 94 kts 271°
2026-04-21 14:55 37.25195 -3.63303 5893 ft 102 kts 272°
2026-04-21 14:56 37.25283 -3.64223 5885 ft 104 kts 270°
2026-04-21 14:56 37.25362 -3.65128 5876 ft 103 kts 271°
2026-04-21 14:56 37.25447 -3.66017 5893 ft 104 kts 270°
2026-04-21 14:56 37.25532 -3.66905 5875 ft 104 kts 272°
2026-04-21 14:57 37.25496 -3.67796 5877 ft 102 kts 256°
2026-04-21 14:57 37.25372 -3.68704 5697 ft 112 kts 257°
2026-04-21 14:57 37.25229 -3.69715 5458 ft 120 kts 256°
2026-04-21 14:57 37.25080 -3.70747 5224 ft 119 kts 256°
2026-04-21 14:58 37.24749 -3.71628 4983 ft 111 kts 218°
2026-04-21 14:58 37.24032 -3.72081 4757 ft 116 kts 209°
2026-04-21 14:58 37.23300 -3.72534 4507 ft 118 kts 211°
2026-04-21 14:58 37.22816 -3.73300 4244 ft 111 kts 242°
2026-04-21 14:59 37.22531 -3.74198 4032 ft 117 kts 257°
2026-04-21 14:59 37.22605 -3.75237 3868 ft 115 kts 268°
2026-04-21 14:59 37.22682 -3.76131 3871 ft 98 kts 269°
2026-04-21 14:59 37.22683 -3.76996 3871 ft 101 kts 262°
2026-04-21 15:00 37.22634 -3.77856 3891 ft 93 kts 260°
2026-04-21 15:00 37.22449 -3.78623 3878 ft 96 kts 229°
2026-04-21 15:00 37.22012 -3.79272 3890 ft 96 kts 231°
2026-04-21 15:00 37.21605 -3.79900 3873 ft 89 kts 230°
2026-04-21 15:01 37.21226 -3.80505 3874 ft 88 kts 231°
2026-04-21 15:01 37.20816 -3.81122 3891 ft 97 kts 229°
2026-04-21 15:01 37.20526 -3.81890 3895 ft 101 kts 257°
2026-04-21 15:01 37.20629 -3.82770 3886 ft 104 kts 282°
2026-04-21 15:02 37.20861 -3.83623 3896 ft 105 kts 282°
2026-04-21 15:02 37.21085 -3.84476 3879 ft 103 kts 281°
2026-04-21 15:02 37.21324 -3.85312 3882 ft 101 kts 281°
2026-04-21 15:02 37.21578 -3.86125 3884 ft 101 kts 280°
2026-04-21 15:03 37.21789 -3.86973 3886 ft 100 kts 264°
2026-04-21 15:03 37.21568 -3.87769 3887 ft 96 kts 242°
2026-04-21 15:03 37.21331 -3.88554 3886 ft 96 kts 245°
2026-04-21 15:03 37.21102 -3.89349 3892 ft 98 kts 245°
2026-04-21 15:04 37.20848 -3.90168 3881 ft 101 kts 244°
2026-04-21 15:04 37.20607 -3.90965 3887 ft 97 kts 243°
2026-04-21 15:04 37.20355 -3.91747 3889 ft 96 kts 243°
2026-04-21 15:04 37.20159 -3.92562 3893 ft 104 kts 265°
2026-04-21 15:05 37.20264 -3.93469 3884 ft 105 kts 271°
2026-04-21 15:05 37.20469 -3.95224 3877 ft 97 kts 271°
2026-04-21 15:05 37.20576 -3.96069 3896 ft 103 kts 270°
2026-04-21 15:06 37.20681 -3.96998 3890 ft 110 kts 272°
2026-04-21 15:06 37.20778 -3.97949 3874 ft 106 kts 270°
2026-04-21 15:06 37.20870 -3.98812 3876 ft 93 kts 261°
2026-04-21 15:06 37.20753 -3.99572 3882 ft 89 kts 253°
2026-04-21 15:07 37.20629 -4.00333 3874 ft 86 kts 252°
2026-04-21 15:07 37.20503 -4.01061 3873 ft 88 kts 252°
2026-04-21 15:07 37.20392 -4.01785 3894 ft 86 kts 252°
2026-04-21 15:07 37.20272 -4.02551 3890 ft 92 kts 254°
2026-04-21 15:08 37.20130 -4.03349 3891 ft 97 kts 251°
2026-04-21 15:08 37.19987 -4.04166 3888 ft 95 kts 252°
2026-04-21 15:08 37.19841 -4.04972 3889 ft 94 kts 252°
2026-04-21 15:08 37.19682 -4.05759 3879 ft 94 kts 251°
2026-04-21 15:09 37.19531 -4.06523 3881 ft 88 kts 250°
2026-04-21 15:09 37.19402 -4.07280 3882 ft 89 kts 251°
2026-04-21 15:09 37.19283 -4.08042 3884 ft 89 kts 252°
2026-04-21 15:09 37.19143 -4.08797 3886 ft 90 kts 252°
2026-04-21 15:10 37.18990 -4.09559 3880 ft 90 kts 250°
2026-04-21 15:10 37.18859 -4.10330 3870 ft 89 kts 253°
2026-04-21 15:10 37.18745 -4.11056 3878 ft 85 kts 260°
2026-04-21 15:10 37.18781 -4.11833 3886 ft 93 kts 265°
2026-04-21 15:11 37.18803 -4.12651 3875 ft 92 kts 265°
2026-04-21 15:11 37.18828 -4.13373 3883 ft 79 kts 263°
2026-04-21 15:11 37.18877 -4.14096 3892 ft 90 kts 264°
2026-04-21 15:11 37.18925 -4.14935 3900 ft 103 kts 258°
2026-04-21 15:12 37.18853 -4.15850 3892 ft 110 kts 256°
2026-04-21 15:12 37.18676 -4.16750 3900 ft 103 kts 241°
2026-04-21 15:12 37.18361 -4.17534 3898 ft 98 kts 238°
2026-04-21 15:12 37.18055 -4.18314 3888 ft 100 kts 239°
2026-04-21 15:13 37.17856 -4.18842 3895 ft 102 kts 239°
2026-04-21 15:13 37.17431 -4.19929 3900 ft 104 kts 239°
2026-04-21 15:13 37.17117 -4.20750 3883 ft 104 kts 239°
2026-04-21 15:13 37.16852 -4.21577 3873 ft 101 kts 245°
2026-04-21 15:14 37.16594 -4.22373 3877 ft 97 kts 245°
2026-04-21 15:14 37.16350 -4.23165 3878 ft 97 kts 242°
2026-04-21 15:14 37.16157 -4.23922 3883 ft 87 kts 243°
2026-04-21 15:14 37.15957 -4.24678 3882 ft 96 kts 243°
2026-04-21 15:15 37.15724 -4.25457 3879 ft 94 kts 244°
2026-04-21 15:15 37.15506 -4.26221 3893 ft 95 kts 244°
2026-04-21 15:15 37.15266 -4.27035 3889 ft 104 kts 244°
2026-04-21 15:15 37.14992 -4.27896 3883 ft 105 kts 244°
2026-04-21 15:16 37.14710 -4.28742 3881 ft 105 kts 241°
2026-04-21 15:16 37.14423 -4.29583 3889 ft 104 kts 241°
2026-04-21 15:16 37.14155 -4.30419 3887 ft 105 kts 243°
2026-04-21 15:16 37.14013 -4.31325 3869 ft 110 kts 269°
2026-04-21 15:17 37.14089 -4.32283 3879 ft 109 kts 264°
2026-04-21 15:17 37.14024 -4.33208 3883 ft 105 kts 259°
2026-04-21 15:17 37.13984 -4.34099 3875 ft 101 kts 257°
2026-04-21 15:17 37.13953 -4.34969 3875 ft 100 kts 257°
2026-04-21 15:18 37.13931 -4.35824 3889 ft 99 kts 260°
2026-04-21 15:18 37.13918 -4.36710 3888 ft 104 kts 258°
2026-04-21 15:18 37.13908 -4.37626 3891 ft 105 kts 263°
2026-04-21 15:18 37.13859 -4.38551 3876 ft 107 kts 254°
2026-04-21 15:19 37.13661 -4.39431 3871 ft 103 kts 246°
2026-04-21 15:19 37.13557 -4.40290 3873 ft 104 kts 266°
2026-04-21 15:19 37.13690 -4.41178 3876 ft 103 kts 270°
2026-04-21 15:19 37.13814 -4.42077 3882 ft 108 kts 270°
2026-04-21 15:20 37.13937 -4.43017 3879 ft 110 kts 269°
2026-04-21 15:20 37.14062 -4.43960 3885 ft 111 kts 270°
2026-04-21 15:20 37.14168 -4.44935 3883 ft 114 kts 269°
2026-04-21 15:20 37.14243 -4.45594 3875 ft 117 kts 269°
2026-04-21 15:21 37.14390 -4.46979 3882 ft 122 kts 269°
2026-04-21 15:21 37.14502 -4.48033 3881 ft 121 kts 270°
2026-04-21 15:21 37.14583 -4.48733 3874 ft 121 kts 269°
2026-04-21 15:21 37.14695 -4.49736 3873 ft 113 kts 269°
2026-04-21 15:22 37.14800 -4.50692 3872 ft 114 kts 268°
2026-04-21 15:22 37.14928 -4.51656 3865 ft 108 kts 268°
2026-04-21 15:22 37.15057 -4.52605 3866 ft 112 kts 269°
2026-04-21 15:22 37.15179 -4.53564 3882 ft 114 kts 268°
2026-04-21 15:23 37.15298 -4.54595 3876 ft 124 kts 271°
2026-04-21 15:23 37.15407 -4.55659 3866 ft 122 kts 268°
2026-04-21 15:23 37.15532 -4.56708 3861 ft 120 kts 269°
2026-04-21 15:23 37.15667 -4.57742 3868 ft 122 kts 270°
2026-04-21 15:24 37.15759 -4.58803 3820 ft 125 kts 266°
2026-04-21 15:24 37.15841 -4.59914 3578 ft 129 kts 266°
2026-04-21 15:24 37.15901 -4.61040 3332 ft 131 kts 265°
2026-04-21 15:24 37.15978 -4.62177 3087 ft 127 kts 266°
2026-04-21 15:25 37.16066 -4.63252 2864 ft 120 kts 265°
2026-04-21 15:25 37.16160 -4.64209 2849 ft 107 kts 266°
2026-04-21 15:25 37.16253 -4.65116 2849 ft 102 kts 266°
2026-04-21 15:25 37.16336 -4.66041 2875 ft 117 kts 266°
2026-04-21 15:26 37.16414 -4.67121 2852 ft 127 kts 266°
2026-04-21 15:26 37.16493 -4.68216 2862 ft 126 kts 266°
2026-04-21 15:26 37.16576 -4.69287 2864 ft 122 kts 266°
2026-04-21 15:26 37.16664 -4.70332 2855 ft 119 kts 266°
2026-04-21 15:27 37.16753 -4.71340 2847 ft 113 kts 266°
2026-04-21 15:27 37.16851 -4.72313 2844 ft 114 kts 272°
2026-04-21 15:27 37.17163 -4.73258 2845 ft 118 kts 284°
2026-04-21 15:27 37.17492 -4.74192 2846 ft 118 kts 287°
2026-04-21 15:28 37.18077 -4.74963 2845 ft 126 kts 315°
2026-04-21 15:28 37.18725 -4.75677 2848 ft 121 kts 306°
2026-04-21 15:28 37.19167 -4.76543 2839 ft 114 kts 289°
2026-04-21 15:28 37.19558 -4.77405 2855 ft 118 kts 290°
2026-04-21 15:29 37.19967 -4.78330 2855 ft 125 kts 290°
2026-04-21 15:29 37.20392 -4.79286 2859 ft 125 kts 288°
2026-04-21 15:29 37.20824 -4.80263 2855 ft 129 kts 289°
2026-04-21 15:29 37.21258 -4.81242 2856 ft 127 kts 289°
2026-04-21 15:30 37.21686 -4.82211 2850 ft 126 kts 290°
2026-04-21 15:30 37.22116 -4.83179 2853 ft 128 kts 290°
2026-04-21 15:30 37.22551 -4.84166 2851 ft 130 kts 290°
2026-04-21 15:30 37.22991 -4.85169 2850 ft 133 kts 290°
2026-04-21 15:31 37.23436 -4.86182 2842 ft 133 kts 289°
2026-04-21 15:31 37.23882 -4.87198 2846 ft 133 kts 290°
2026-04-21 15:31 37.24332 -4.88208 2841 ft 132 kts 289°
2026-04-21 15:31 37.24774 -4.89200 2840 ft 131 kts 291°
2026-04-21 15:32 37.25216 -4.90200 2835 ft 131 kts 290°
2026-04-21 15:32 37.25660 -4.91203 2845 ft 133 kts 291°
2026-04-21 15:32 37.26098 -4.92231 2821 ft 130 kts 291°
2026-04-21 15:32 37.26518 -4.93202 2829 ft 126 kts 289°
2026-04-21 15:33 37.26929 -4.94138 2825 ft 122 kts 290°
2026-04-21 15:33 37.27166 -4.95111 2825 ft 114 kts 265°
2026-04-21 15:33 37.27145 -4.96093 2829 ft 113 kts 257°
2026-04-21 15:33 37.27113 -4.97068 2830 ft 110 kts 257°
2026-04-21 15:34 37.27035 -4.98014 2834 ft 111 kts 252°
2026-04-21 15:34 37.26929 -4.99004 2831 ft 116 kts 254°
2026-04-21 15:34 37.26819 -5.00000 2835 ft 113 kts 253°
2026-04-21 15:34 37.26714 -5.00981 2834 ft 114 kts 253°
2026-04-21 15:35 37.26616 -5.01964 2840 ft 114 kts 255°
2026-04-21 15:35 37.26494 -5.02940 2832 ft 110 kts 253°
2026-04-21 15:35 37.26379 -5.03909 2819 ft 112 kts 253°
2026-04-21 15:35 37.26270 -5.04885 2824 ft 115 kts 253°
2026-04-21 15:36 37.26155 -5.05890 2835 ft 117 kts 253°
2026-04-21 15:36 37.26058 -5.06899 2829 ft 116 kts 255°
2026-04-21 15:36 37.25953 -5.07869 2817 ft 109 kts 252°
2026-04-21 15:36 37.25876 -5.08798 2816 ft 105 kts 255°
2026-04-21 15:37 37.25784 -5.09675 2821 ft 97 kts 253°
2026-04-21 15:37 37.25692 -5.10499 2822 ft 96 kts 255°
2026-04-21 15:37 37.25589 -5.11350 2817 ft 100 kts 253°
2026-04-21 15:37 37.25486 -5.12231 2821 ft 105 kts 253°
2026-04-21 15:38 37.25411 -5.13153 2826 ft 108 kts 253°
2026-04-21 15:38 37.25329 -5.14099 2829 ft 109 kts 254°
2026-04-21 15:38 37.25243 -5.15052 2831 ft 112 kts 252°
2026-04-21 15:38 37.25147 -5.16026 2826 ft 111 kts 253°
2026-04-21 15:39 37.25063 -5.16980 2824 ft 108 kts 253°
2026-04-21 15:39 37.24986 -5.17904 2820 ft 106 kts 253°
2026-04-21 15:39 37.24962 -5.18830 2819 ft 110 kts 271°
2026-04-21 15:39 37.25145 -5.19788 2822 ft 117 kts 272°
2026-04-21 15:40 37.25330 -5.20802 2826 ft 119 kts 273°
2026-04-21 15:40 37.25512 -5.21799 2823 ft 117 kts 272°
2026-04-21 15:40 37.25695 -5.22780 2815 ft 113 kts 272°
2026-04-21 15:40 37.25863 -5.23728 2819 ft 112 kts 273°
2026-04-21 15:41 37.26029 -5.24696 2816 ft 114 kts 272°
2026-04-21 15:41 37.26193 -5.25654 2806 ft 110 kts 272°
2026-04-21 15:41 37.26356 -5.26603 2802 ft 111 kts 272°
2026-04-21 15:41 37.26509 -5.27538 2821 ft 110 kts 272°
2026-04-21 15:42 37.26670 -5.28475 2814 ft 112 kts 272°
2026-04-21 15:42 37.26853 -5.29438 2816 ft 114 kts 272°
2026-04-21 15:42 37.27033 -5.30391 2811 ft 109 kts 273°
2026-04-21 15:42 37.27205 -5.31328 2815 ft 112 kts 273°
2026-04-21 15:43 37.27380 -5.32285 2814 ft 113 kts 272°
2026-04-21 15:43 37.27570 -5.33245 2818 ft 114 kts 273°
2026-04-21 15:43 37.27760 -5.34212 2805 ft 112 kts 273°
2026-04-21 15:43 37.27930 -5.35157 2806 ft 111 kts 273°
2026-04-21 15:44 37.28086 -5.36102 2810 ft 110 kts 271°
2026-04-21 15:44 37.28257 -5.37053 2814 ft 113 kts 272°
2026-04-21 15:44 37.28432 -5.38007 2815 ft 113 kts 272°
2026-04-21 15:44 37.28599 -5.38982 2811 ft 116 kts 272°
2026-04-21 15:45 37.28771 -5.39978 2812 ft 118 kts 272°
2026-04-21 15:45 37.28961 -5.40981 2803 ft 117 kts 272°
2026-04-21 15:45 37.29146 -5.41977 2807 ft 117 kts 274°
2026-04-21 15:45 37.29313 -5.42982 2806 ft 118 kts 272°
2026-04-21 15:46 37.29494 -5.43994 2800 ft 118 kts 274°
2026-04-21 15:46 37.29661 -5.45013 2801 ft 120 kts 273°
2026-04-21 15:46 37.29826 -5.46041 2813 ft 121 kts 271°
2026-04-21 15:46 37.30011 -5.47075 2805 ft 120 kts 272°
2026-04-21 15:47 37.30208 -5.48094 2794 ft 118 kts 272°
2026-04-21 15:47 37.30401 -5.49063 2790 ft 114 kts 272°
2026-04-21 15:47 37.30592 -5.50043 2791 ft 116 kts 273°
2026-04-21 15:47 37.30780 -5.51034 2783 ft 117 kts 272°
2026-04-21 15:48 37.30976 -5.52055 2572 ft 130 kts 273°
2026-04-21 15:48 37.31161 -5.53209 2238 ft 139 kts 272°
2026-04-21 15:48 37.31307 -5.54436 1887 ft 143 kts 269°
2026-04-21 15:48 37.31404 -5.55654 1784 ft 133 kts 269°
2026-04-21 15:49 37.31506 -5.56767 1788 ft 125 kts 269°
2026-04-21 15:49 37.31605 -5.57818 1783 ft 116 kts 268°
2026-04-21 15:49 37.31724 -5.58802 1780 ft 113 kts 269°
2026-04-21 15:49 37.31868 -5.59758 1778 ft 109 kts 270°
2026-04-21 15:50 37.31987 -5.60695 1783 ft 110 kts 269°
2026-04-21 15:50 37.32109 -5.61660 1783 ft 110 kts 269°
2026-04-21 15:50 37.32236 -5.62615 1777 ft 109 kts 269°
2026-04-21 15:50 37.32344 -5.63539 1775 ft 105 kts 269°
2026-04-21 15:51 37.32454 -5.64436 1783 ft 106 kts 268°
2026-04-21 15:51 37.32506 -5.65372 1783 ft 108 kts 257°
2026-04-21 15:51 37.32463 -5.66314 1785 ft 109 kts 258°
2026-04-21 15:51 37.32412 -5.67283 1791 ft 113 kts 256°
2026-04-21 15:52 37.32370 -5.68272 1782 ft 111 kts 258°
2026-04-21 15:52 37.32314 -5.69243 1784 ft 111 kts 256°
2026-04-21 15:52 37.32270 -5.70204 1786 ft 112 kts 257°
2026-04-21 15:52 37.32305 -5.71196 1783 ft 116 kts 268°
2026-04-21 15:53 37.32480 -5.72199 1779 ft 119 kts 278°
2026-04-21 15:53 37.32737 -5.73184 1777 ft 119 kts 277°
2026-04-21 15:53 37.33004 -5.74168 1770 ft 116 kts 278°
2026-04-21 15:53 37.33267 -5.75103 1768 ft 112 kts 278°
2026-04-21 15:54 37.33530 -5.76032 1773 ft 114 kts 277°
2026-04-21 15:54 37.33793 -5.76984 1767 ft 118 kts 278°
2026-04-21 15:54 37.34051 -5.77939 1769 ft 114 kts 278°
2026-04-21 15:54 37.34309 -5.78902 1775 ft 119 kts 277°
2026-04-21 15:55 37.34568 -5.79893 1776 ft 120 kts 278°
2026-04-21 15:55 37.34848 -5.80880 1773 ft 120 kts 277°
2026-04-21 15:55 37.35155 -5.81849 1785 ft 122 kts 276°
2026-04-21 15:55 37.35468 -5.82859 1781 ft 125 kts 278°
2026-04-21 15:56 37.35778 -5.83870 1776 ft 122 kts 277°
2026-04-21 15:56 37.36231 -5.84810 1775 ft 130 kts 298°
2026-04-21 15:56 37.36812 -5.85657 1771 ft 127 kts 297°
2026-04-21 15:56 37.37385 -5.86503 1775 ft 128 kts 299°
2026-04-21 15:57 37.37965 -5.87355 1769 ft 127 kts 299°
2026-04-21 15:57 37.38495 -5.88237 1766 ft 125 kts 293°
2026-04-21 15:57 37.38872 -5.89160 1763 ft 113 kts 271°
2026-04-21 15:57 37.39035 -5.90124 1776 ft 113 kts 270°
2026-04-21 15:58 37.39192 -5.91115 1773 ft 116 kts 270°
2026-04-21 15:58 37.39351 -5.92077 1763 ft 112 kts 268°
2026-04-21 15:58 37.39513 -5.93022 1760 ft 109 kts 269°
2026-04-21 15:58 37.39545 -5.93919 1775 ft 98 kts 240°
2026-04-21 15:59 37.39291 -5.94703 1762 ft 98 kts 237°
2026-04-21 15:59 37.39019 -5.95578 1539 ft 114 kts 238°
2026-04-21 15:59 37.38698 -5.96518 1313 ft 120 kts 239°
2026-04-21 15:59 37.38380 -5.97432 1365 ft 106 kts 237°
2026-04-21 16:00 37.38091 -5.98209 1462 ft 90 kts 218°
2026-04-21 16:00 37.37524 -5.98348 1466 ft 86 kts 177°
2026-04-21 16:00 37.36928 -5.98309 1466 ft 86 kts 179°
2026-04-21 16:00 37.36342 -5.98242 1471 ft 84 kts 179°
2026-04-21 16:01 37.35769 -5.98152 1470 ft 83 kts 178°
2026-04-21 16:01 37.35190 -5.98064 1476 ft 86 kts 179°
2026-04-21 16:01 37.34622 -5.98194 1474 ft 90 kts 218°
2026-04-21 16:01 37.34571 -5.99044 1471 ft 119 kts 286°
2026-04-21 16:02 37.35294 -5.99646 1465 ft 141 kts 347°
2026-04-21 16:02 37.36290 -5.99560 1464 ft 145 kts
2026-04-21 16:02 37.37292 -5.99445 1467 ft 145 kts
2026-04-21 16:02 37.38298 -5.99344 1470 ft 143 kts
2026-04-21 16:03 37.39275 -5.99278 1468 ft 136 kts
2026-04-21 16:03 37.40229 -5.99214 1202 ft 144 kts
2026-04-21 16:03 37.41215 -5.98973 955 ft 136 kts 32°
2026-04-21 16:03 37.41974 -5.98452 960 ft 115 kts 33°
2026-04-21 16:04 37.42680 -5.98022 960 ft 111 kts 33°
2026-04-21 16:04 37.43363 -5.97585 954 ft 109 kts 33°
2026-04-21 16:04 37.44027 -5.97133 957 ft 106 kts 32°
2026-04-21 16:04 37.44622 -5.96719 957 ft 95 kts 34°
2026-04-21 16:05 37.45202 -5.96320 961 ft 96 kts 35°
2026-04-21 16:05 37.45800 -5.95946 965 ft 97 kts 32°
2026-04-21 16:05 37.46303 -5.95422 964 ft 92 kts 61°
2026-04-21 16:05 37.46704 -5.94839 964 ft 84 kts 57°
2026-04-21 16:06 37.47075 -5.94312 948 ft 78 kts 57°
2026-04-21 16:06 37.47453 -5.93781 988 ft 85 kts 59°
2026-04-21 16:06 37.47914 -5.93225 1013 ft 104 kts 51°
2026-04-21 16:06 37.48488 -5.92542 1014 ft 121 kts 52°
2026-04-21 16:07 37.49116 -5.91793 1008 ft 127 kts 47°
2026-04-21 16:07 37.49532 -5.91286 1008 ft 124 kts 50°
2026-04-21 16:07 37.50174 -5.90534 1000 ft 127 kts 49°
2026-04-21 16:07 37.50842 -5.89835 1010 ft 126 kts 44°
2026-04-21 16:08 37.51835 -5.88178 988 ft 112 kts 112°
2026-04-21 16:08 37.51384 -5.87623 992 ft 90 kts 176°
2026-04-21 16:08 37.50765 -5.87760 997 ft 95 kts 189°
2026-04-21 16:09 37.50100 -5.87888 1006 ft 100 kts 188°
2026-04-21 16:09 37.49398 -5.88037 1001 ft 103 kts 188°
2026-04-21 16:09 37.48724 -5.88210 996 ft 96 kts 188°
2026-04-21 16:09 37.48089 -5.88379 989 ft 91 kts 189°
2026-04-21 16:10 37.47472 -5.88494 989 ft 89 kts 188°
2026-04-21 16:10 37.46849 -5.88630 990 ft 91 kts 189°
2026-04-21 16:10 37.46228 -5.88821 992 ft 93 kts 193°
2026-04-21 16:10 37.45581 -5.89051 999 ft 100 kts 192°
2026-04-21 16:11 37.45016 -5.89533 998 ft 108 kts 234°
2026-04-21 16:11 37.45053 -5.90509 997 ft 120 kts 275°
2026-04-21 16:11 37.45275 -5.91515 992 ft 116 kts 272°
2026-04-21 16:11 37.45433 -5.92460 993 ft 103 kts 257°
2026-04-21 16:12 37.45007 -5.93017 990 ft 92 kts 186°
2026-04-21 16:12 37.44379 -5.93109 996 ft 87 kts 186°
2026-04-21 16:12 37.43776 -5.93187 1007 ft 89 kts 184°
2026-04-21 16:12 37.43160 -5.93161 1010 ft 87 kts 177°
2026-04-21 16:13 37.42590 -5.93111 933 ft 85 kts 167°
2026-04-21 16:13 37.42091 -5.92544 569 ft 104 kts 126°
2026-04-21 16:13 37.41829 -5.91766 434 ft 94 kts 114°
2026-04-21 16:13 37.41792 -5.90967 207 ft 85 kts 104°
2026-04-21 16:14 37.41796 -5.90267 109 ft 75 kts 99°
2026-04-21 16:14 37.41775 -5.89852 105 ft 10 kts 72°
2026-04-21 16:14 37.41835 -5.89828 104 ft 15 kts 10°
2026-04-21 16:14 37.41940 -5.89855 103 ft 17 kts 336°
2026-04-21 16:15 37.41979 -5.89981 104 ft 15 kts 274°
2026-04-21 16:15 37.41979 -5.90103 107 ft 12 kts 265°
2026-04-21 16:15 37.41979 -5.90208 109 ft 13 kts 270°
2026-04-21 16:15 37.41993 -5.90301 108 ft 10 kts 342°
2026-04-21 16:16 37.42040 -5.90325 106 ft 6 kts 263°
2026-04-21 16:16 37.42040 -5.90396 106 ft 10 kts 271°
2026-04-21 16:16 37.42037 -5.90513 106 ft 16 kts 260°
2026-04-21 16:16 37.42032 -5.90616 104 ft 10 kts 275°
2026-04-21 16:17 37.42049 -5.90634 103 ft 5 kts 28°
2026-04-21 16:17 37.42053 -5.90623 103 ft 3 kts 99°
2026-04-21 16:17 37.42050 -5.90615 104 ft 0 kts 107°
2026-04-21 16:17 37.42050 -5.90613 104 ft 0 kts 91°
2026-04-21 16:18 37.42050 -5.90612 104 ft 0 kts 86°